Time;durP1;ratioP1;P1;durP2;ratioP2;P2;SDS_P1;SDS_P2;PMS_P1;PMS_P2;Temp;Humidity;BMP_temperature;BMP_pressure;BME280_temperature;BME280_humidity;BME280_pressure;Samples;Min_cycle;Max_cycle;Signal;HPM_P1;HPM_P2
2024/02/08 00:00:55;;;;;;;7.27;4.00;;;;;;;;;;5010129;28;20200;-61
2024/02/08 00:03:21;;;;;;;9.43;4.40;;;;;;;;;;5018611;28;20185;-61
2024/02/08 00:05:47;;;;;;;6.33;3.43;;;;;;;;;;5047750;28;20240;-62
2024/02/08 00:08:13;;;;;;;7.87;3.67;;;;;;;;;;5041026;28;20666;-62
2024/02/08 00:10:39;;;;;;;6.13;3.27;;;;;;;;;;5024864;28;20208;-61
2024/02/08 00:13:05;;;;;;;6.73;3.50;;;;;;;;;;5041312;28;20660;-60
2024/02/08 00:15:31;;;;;;;5.83;3.30;;;;;;;;;;5016982;28;20186;-61
2024/02/08 00:17:57;;;;;;;7.33;4.10;;;;;;;;;;5028849;28;20204;-61
2024/02/08 00:20:23;;;;;;;7.10;4.17;;;;;;;;;;5030205;28;20214;-62
2024/02/08 00:22:52;;;;;;;6.40;3.47;;;;;;;;;;5009702;28;20192;-62
2024/02/08 00:25:18;;;;;;;8.33;4.03;;;;;;;;;;5010121;28;20188;-62
2024/02/08 00:27:48;;;;;;;6.70;3.67;;;;;;;;;;5028476;28;20206;-62
2024/02/08 00:30:17;;;;;;;5.73;2.87;;;;;;;;;;5029512;28;20290;-62
2024/02/08 00:32:46;;;;;;;7.53;3.80;;;;;;;;;;5027560;28;20195;-62
2024/02/08 00:35:12;;;;;;;7.13;3.57;;;;;;;;;;5032293;28;20182;-62
2024/02/08 00:37:38;;;;;;;9.83;3.50;;;;;;;;;;5030015;28;20204;-62
2024/02/08 00:40:08;;;;;;;6.73;3.50;;;;;;;;;;5049412;28;20221;-62
2024/02/08 00:42:34;;;;;;;6.93;3.37;;;;;;;;;;5047922;28;20198;-62
2024/02/08 00:45:00;;;;;;;5.70;3.13;;;;;;;;;;5026111;28;20188;-61
2024/02/08 00:47:26;;;;;;;6.80;3.13;;;;;;;;;;5033365;28;20249;-60
2024/02/08 00:49:52;;;;;;;4.83;2.90;;;;;;;;;;5023959;28;20207;-62
2024/02/08 00:52:18;;;;;;;10.00;3.77;;;;;;;;;;5023150;28;20293;-62
2024/02/08 00:54:44;;;;;;;7.37;3.73;;;;;;;;;;5022294;28;20193;-62
2024/02/08 00:57:10;;;;;;;6.70;2.87;;;;;;;;;;5031448;28;20715;-62
2024/02/08 00:59:37;;;;;;;5.90;2.77;;;;;;;;;;5027234;28;20212;-61
2024/02/08 01:02:03;;;;;;;5.27;2.93;;;;;;;;;;5033051;28;20193;-62
2024/02/08 01:04:29;;;;;;;6.17;2.80;;;;;;;;;;5025870;28;20193;-61
2024/02/08 01:06:55;;;;;;;5.67;2.97;;;;;;;;;;5025027;28;20188;-61
2024/02/08 01:09:21;;;;;;;6.70;3.33;;;;;;;;;;5025610;28;20208;-62
2024/02/08 01:11:47;;;;;;;7.27;3.00;;;;;;;;;;5030644;28;20206;-62
2024/02/08 01:14:13;;;;;;;7.03;3.10;;;;;;;;;;5028928;28;20598;-61
2024/02/08 01:16:45;;;;;;;7.07;3.00;;;;;;;;;;5026317;28;20213;-61
2024/02/08 01:19:11;;;;;;;5.87;3.07;;;;;;;;;;5026552;28;20755;-61
2024/02/08 01:21:37;;;;;;;5.77;2.90;;;;;;;;;;5013645;28;20188;-61
2024/02/08 01:24:03;;;;;;;6.33;2.70;;;;;;;;;;5018652;28;20199;-60
2024/02/08 01:26:29;;;;;;;4.73;2.73;;;;;;;;;;5048082;28;20191;-61
2024/02/08 01:28:55;;;;;;;4.97;2.67;;;;;;;;;;5020818;28;20710;-61
2024/02/08 01:31:21;;;;;;;5.53;2.80;;;;;;;;;;5045332;28;20191;-62
2024/02/08 01:33:50;;;;;;;6.50;3.03;;;;;;;;;;5047310;28;20201;-62
2024/02/08 01:36:16;;;;;;;6.63;3.43;;;;;;;;;;5012142;28;20211;-62
2024/02/08 01:38:42;;;;;;;5.97;2.63;;;;;;;;;;5012606;28;20211;-62
2024/02/08 01:41:09;;;;;;;6.03;3.10;;;;;;;;;;5045904;28;20234;-62
2024/02/08 01:43:36;;;;;;;7.43;2.60;;;;;;;;;;5026551;28;20208;-62
2024/02/08 01:46:02;;;;;;;11.10;3.20;;;;;;;;;;5036113;28;20685;-62
2024/02/08 01:48:30;;;;;;;4.77;2.30;;;;;;;;;;5052105;28;20670;-61
2024/02/08 01:50:59;;;;;;;5.23;3.00;;;;;;;;;;5036547;28;20259;-62
2024/02/08 01:53:28;;;;;;;6.67;2.93;;;;;;;;;;5012588;28;20271;-62
2024/02/08 01:55:59;;;;;;;4.77;2.90;;;;;;;;;;5051228;28;20273;-62
2024/02/08 01:58:26;;;;;;;7.30;3.03;;;;;;;;;;5044309;28;20278;-61
2024/02/08 02:00:53;;;;;;;4.90;2.77;;;;;;;;;;5040136;28;20242;-62
2024/02/08 02:03:23;;;;;;;9.57;3.20;;;;;;;;;;5047225;28;20207;-62
2024/02/08 02:05:49;;;;;;;7.13;2.73;;;;;;;;;;5029998;28;20218;-62
2024/02/08 02:08:21;;;;;;;7.37;2.80;;;;;;;;;;5019953;28;20255;-62
2024/02/08 02:11:07;;;;;;;8.70;3.07;;;;;;;;;;5011836;28;20298;-62
2024/02/08 02:13:36;;;;;;;6.13;2.90;;;;;;;;;;5020089;28;20661;-62
2024/02/08 02:16:02;;;;;;;6.93;3.00;;;;;;;;;;5019671;28;20188;-62
2024/02/08 02:18:28;;;;;;;7.00;3.17;;;;;;;;;;5020029;28;20238;-61
2024/02/08 02:20:54;;;;;;;7.73;3.27;;;;;;;;;;5028226;28;20196;-61
2024/02/08 02:23:20;;;;;;;6.13;3.03;;;;;;;;;;5042370;28;20302;-62
2024/02/08 02:25:53;;;;;;;7.20;2.80;;;;;;;;;;5021793;28;20180;-62
2024/02/08 02:28:20;;;;;;;10.67;3.00;;;;;;;;;;5035279;28;20188;-62
2024/02/08 02:30:46;;;;;;;9.30;3.40;;;;;;;;;;5031587;28;20233;-62
2024/02/08 02:33:13;;;;;;;8.37;3.20;;;;;;;;;;5033955;28;20221;-62
2024/02/08 02:35:39;;;;;;;8.63;3.53;;;;;;;;;;5011421;28;20455;-62
2024/02/08 02:38:12;;;;;;;7.27;3.60;;;;;;;;;;5024010;28;20211;-62
2024/02/08 02:40:41;;;;;;;8.93;3.50;;;;;;;;;;5039191;28;20230;-62
2024/02/08 02:43:10;;;;;;;9.03;3.80;;;;;;;;;;5033386;28;20617;-62
2024/02/08 02:45:36;;;;;;;7.70;3.53;;;;;;;;;;5037582;28;20236;-62
2024/02/08 02:48:02;;;;;;;7.80;3.27;;;;;;;;;;5050915;28;20193;-62
2024/02/08 02:50:29;;;;;;;9.87;3.50;;;;;;;;;;5034686;28;20596;-62
2024/02/08 02:52:55;;;;;;;7.60;3.80;;;;;;;;;;5031126;28;20188;-62
2024/02/08 02:55:22;;;;;;;7.00;3.40;;;;;;;;;;5045964;28;20225;-62
2024/02/08 02:57:49;;;;;;;9.13;3.70;;;;;;;;;;5045477;28;20276;-63
2024/02/08 03:00:21;;;;;;;5.87;3.10;;;;;;;;;;5025464;28;20286;-62
2024/02/08 03:02:48;;;;;;;8.63;3.50;;;;;;;;;;5037164;28;20184;-62
2024/02/08 03:05:14;;;;;;;6.27;3.37;;;;;;;;;;5027463;28;20188;-61
2024/02/08 03:07:42;;;;;;;6.60;3.30;;;;;;;;;;5044338;28;20183;-62
2024/02/08 03:10:11;;;;;;;5.50;2.93;;;;;;;;;;5017519;28;20205;-63
2024/02/08 03:12:37;;;;;;;8.30;3.10;;;;;;;;;;5045561;28;20187;-62
2024/02/08 03:15:08;;;;;;;5.57;2.90;;;;;;;;;;5037854;28;20307;-63
2024/02/08 03:17:34;;;;;;;6.63;3.13;;;;;;;;;;5013048;28;20200;-62
2024/02/08 03:20:04;;;;;;;7.23;2.77;;;;;;;;;;5027280;28;20252;-62
2024/02/08 03:22:34;;;;;;;12.10;3.23;;;;;;;;;;5042631;28;20264;-61
2024/02/08 03:25:04;;;;;;;6.27;2.70;;;;;;;;;;5018922;28;20208;-62
2024/02/08 03:27:32;;;;;;;9.03;3.00;;;;;;;;;;5034795;28;20198;-62
2024/02/08 03:29:58;;;;;;;7.63;3.13;;;;;;;;;;5041935;28;20703;-62
2024/02/08 03:32:23;;;;;;;7.10;3.10;;;;;;;;;;5026549;28;20192;-62
2024/02/08 03:34:53;;;;;;;7.17;3.47;;;;;;;;;;5033722;28;20195;-62
2024/02/08 03:37:20;;;;;;;8.03;3.13;;;;;;;;;;5026894;28;20730;-62
2024/02/08 03:39:47;;;;;;;8.50;4.00;;;;;;;;;;5048624;28;20643;-61
2024/02/08 03:42:14;;;;;;;8.30;3.70;;;;;;;;;;5030476;28;20199;-62
2024/02/08 03:44:40;;;;;;;7.90;3.40;;;;;;;;;;5018427;28;20196;-61
2024/02/08 03:47:07;;;;;;;7.23;3.07;;;;;;;;;;5035646;28;20191;-62
2024/02/08 03:49:37;;;;;;;7.47;2.93;;;;;;;;;;5033131;28;20208;-62
2024/02/08 03:52:03;;;;;;;10.23;3.67;;;;;;;;;;5019130;28;20183;-62
2024/02/08 03:54:33;;;;;;;7.03;3.53;;;;;;;;;;5025370;28;20272;-62
2024/02/08 03:57:05;;;;;;;7.93;3.60;;;;;;;;;;5033589;28;20670;-63
2024/02/08 03:59:31;;;;;;;9.27;3.80;;;;;;;;;;5041462;28;20195;-62
2024/02/08 04:02:00;;;;;;;9.47;3.80;;;;;;;;;;5026268;28;20207;-62
2024/02/08 04:04:29;;;;;;;9.20;3.57;;;;;;;;;;5026607;28;20259;-62
2024/02/08 04:07:14;;;;;;;7.90;3.47;;;;;;;;;;5048775;28;20614;-62
2024/02/08 04:09:48;;;;;;;8.60;3.60;;;;;;;;;;5038704;28;20222;-62
2024/02/08 04:53:37;;;;;;;7.80;3.40;;;;;;;;;;5027579;28;20326;-62
2024/02/08 04:56:09;;;;;;;7.00;2.90;;;;;;;;;;5040152;28;20201;-62
2024/02/08 04:58:36;;;;;;;8.37;3.87;;;;;;;;;;5015766;28;20251;-62
2024/02/08 05:01:08;;;;;;;7.47;3.93;;;;;;;;;;5033552;28;20228;-62
2024/02/08 05:03:37;;;;;;;8.07;3.70;;;;;;;;;;5034800;28;20196;-62
2024/02/08 05:06:03;;;;;;;6.70;3.63;;;;;;;;;;5032347;28;20271;-63
2024/02/08 05:08:29;;;;;;;7.33;3.60;;;;;;;;;;5045277;28;20274;-62
2024/02/08 05:10:55;;;;;;;8.37;3.33;;;;;;;;;;5036565;28;20281;-63
2024/02/08 05:13:24;;;;;;;6.87;3.53;;;;;;;;;;5044666;28;20712;-62
2024/02/08 05:15:50;;;;;;;6.07;3.57;;;;;;;;;;5039608;28;20202;-62
2024/02/08 05:18:16;;;;;;;7.97;3.60;;;;;;;;;;5021363;28;20216;-62
2024/02/08 05:20:42;;;;;;;6.80;3.27;;;;;;;;;;5030683;28;20692;-62
2024/02/08 05:23:08;;;;;;;8.73;3.83;;;;;;;;;;5029768;28;20202;-62
2024/02/08 05:25:35;;;;;;;10.80;4.13;;;;;;;;;;5028086;28;20289;-62
2024/02/08 05:28:03;;;;;;;10.73;4.73;;;;;;;;;;5044195;28;20311;-63
2024/02/08 05:30:32;;;;;;;12.03;4.80;;;;;;;;;;5045100;28;20328;-62
2024/02/08 05:33:00;;;;;;;11.17;4.47;;;;;;;;;;5016594;28;20188;-61
2024/02/08 05:35:26;;;;;;;10.47;4.33;;;;;;;;;;5033356;28;20211;-62
2024/02/08 05:37:53;;;;;;;11.13;4.87;;;;;;;;;;5022902;28;20224;-62
2024/02/08 05:40:20;;;;;;;13.20;4.47;;;;;;;;;;5035921;28;20258;-62
2024/02/08 05:42:47;;;;;;;11.70;4.67;;;;;;;;;;5047223;28;20207;-62
2024/02/08 05:45:19;;;;;;;8.87;4.30;;;;;;;;;;5024281;28;20641;-62
2024/02/08 05:47:48;;;;;;;11.47;5.60;;;;;;;;;;5050225;28;20201;-61
2024/02/08 05:50:21;;;;;;;10.63;4.73;;;;;;;;;;5027463;28;20216;-60
2024/02/08 05:52:57;;;;;;;11.93;4.73;;;;;;;;;;5040579;28;20189;-62
2024/02/08 05:55:26;;;;;;;10.70;4.47;;;;;;;;;;5017611;28;20656;-62
2024/02/08 05:57:58;;;;;;;13.80;4.83;;;;;;;;;;5016884;28;20238;-61
2024/02/08 06:00:36;;;;;;;11.17;4.63;;;;;;;;;;5022640;28;20267;-62
2024/02/08 06:03:03;;;;;;;9.63;4.00;;;;;;;;;;5012702;28;20192;-62
2024/02/08 06:05:31;;;;;;;9.93;4.43;;;;;;;;;;5036335;28;20529;-62
2024/02/08 06:08:02;;;;;;;14.50;5.50;;;;;;;;;;5031583;28;20179;-61
2024/02/08 06:10:45;;;;;;;14.23;5.70;;;;;;;;;;5039886;28;20734;-62
2024/02/08 06:13:15;;;;;;;13.03;5.90;;;;;;;;;;5031076;28;20309;-61
2024/02/08 06:15:47;;;;;;;12.20;5.53;;;;;;;;;;5035051;28;20191;-61
2024/02/08 06:18:19;;;;;;;10.60;4.53;;;;;;;;;;5032043;28;20211;-61
2024/02/08 06:20:51;;;;;;;12.50;5.20;;;;;;;;;;5023330;28;20286;-62
2024/02/08 06:23:22;;;;;;;15.37;6.40;;;;;;;;;;5052136;28;20183;-62
2024/02/08 06:28:37;;;;;;;15.90;7.00;;;;;;;;;;5044658;28;20241;-61
2024/02/08 06:31:06;;;;;;;18.80;7.13;;;;;;;;;;5036040;28;20213;-62
2024/02/08 06:33:42;;;;;;;17.27;7.53;;;;;;;;;;5019568;28;20188;-59
2024/02/08 06:36:08;;;;;;;22.17;8.20;;;;;;;;;;5024095;28;20725;-62
2024/02/08 06:38:53;;;;;;;16.63;7.10;;;;;;;;;;5039373;28;20757;-62
2024/02/08 06:41:51;;;;;;;19.20;7.97;;;;;;;;;;5025902;28;20195;-62
2024/02/08 06:44:42;;;;;;;14.60;6.77;;;;;;;;;;5028082;28;20332;-62
2024/02/08 06:47:18;;;;;;;14.27;6.43;;;;;;;;;;5029076;28;20192;-62
2024/02/08 07:39:35;;;;;;;14.57;6.10;;;;;;;;;;5023828;28;20223;-61
2024/02/08 07:42:24;;;;;;;15.90;6.20;;;;;;;;;;5033502;28;20235;-61
2024/02/08 07:44:54;;;;;;;17.30;6.90;;;;;;;;;;5030874;28;20521;-61
2024/02/08 07:47:24;;;;;;;17.50;6.10;;;;;;;;;;5027396;28;20183;-61
2024/02/08 07:49:57;;;;;;;10.70;4.67;;;;;;;;;;5014554;28;20196;-61
2024/02/08 07:52:23;;;;;;;11.17;5.30;;;;;;;;;;5014628;28;20219;-61
2024/02/08 07:57:34;;;;;;;15.10;6.37;;;;;;;;;;5024193;28;20214;-62
2024/02/08 08:00:00;;;;;;;15.43;6.47;;;;;;;;;;5024647;28;20203;-62
2024/02/08 08:02:29;;;;;;;13.90;6.03;;;;;;;;;;5042335;28;20211;-62
2024/02/08 08:04:56;;;;;;;12.13;5.70;;;;;;;;;;5045796;28;20187;-61
2024/02/08 08:07:23;;;;;;;12.53;5.47;;;;;;;;;;5030373;28;20620;-62
2024/02/08 08:10:07;;;;;;;11.57;5.70;;;;;;;;;;5021328;28;20207;-62
2024/02/08 08:12:35;;;;;;;14.73;5.00;;;;;;;;;;5040731;28;20187;-62
2024/02/08 08:19:53;;;;;;;11.47;5.40;;;;;;;;;;5034222;28;20218;-59
2024/02/08 08:22:50;;;;;;;17.20;5.87;;;;;;;;;;5024644;28;20185;-60
2024/02/08 08:27:47;;;;;;;11.17;5.23;;;;;;;;;;5044808;28;20187;-61
2024/02/08 08:30:27;;;;;;;11.63;5.27;;;;;;;;;;5026076;28;20206;-61
2024/02/08 08:33:07;;;;;;;10.57;4.90;;;;;;;;;;5027587;28;20212;-60
2024/02/08 08:40:47;;;;;;;12.50;5.63;;;;;;;;;;5013376;28;20212;-61
2024/02/08 08:43:20;;;;;;;11.87;5.37;;;;;;;;;;5036438;28;20205;-61
2024/02/08 08:45:50;;;;;;;13.30;5.23;;;;;;;;;;5033014;28;20198;-62
2024/02/08 08:48:29;;;;;;;15.00;5.60;;;;;;;;;;5020858;28;20246;-61
2024/02/08 08:50:56;;;;;;;10.43;4.70;;;;;;;;;;5035204;28;20214;-61
2024/02/08 08:53:27;;;;;;;12.10;4.43;;;;;;;;;;5044397;28;20248;-60
2024/02/08 08:55:56;;;;;;;10.13;4.57;;;;;;;;;;5046848;28;20398;-60
2024/02/08 08:58:27;;;;;;;10.33;4.33;;;;;;;;;;5029235;28;20247;-61
2024/02/08 09:01:11;;;;;;;10.07;4.67;;;;;;;;;;5034257;28;20252;-61
2024/02/08 09:03:38;;;;;;;11.40;4.90;;;;;;;;;;5036005;28;20190;-61
2024/02/08 09:06:11;;;;;;;9.53;4.53;;;;;;;;;;5047959;28;20294;-59
2024/02/08 09:08:55;;;;;;;14.50;3.83;;;;;;;;;;5026384;28;20608;-60
2024/02/08 09:11:24;;;;;;;8.70;3.90;;;;;;;;;;5041053;28;20540;-60
2024/02/08 09:13:51;;;;;;;8.07;3.90;;;;;;;;;;5019165;28;20239;-59
2024/02/08 09:21:26;;;;;;;9.97;3.73;;;;;;;;;;5035974;28;20183;-60
2024/02/08 09:23:55;;;;;;;10.20;4.27;;;;;;;;;;5026145;28;20235;-60
2024/02/08 09:26:25;;;;;;;10.13;4.60;;;;;;;;;;5030728;28;20242;-61
2024/02/08 09:28:52;;;;;;;12.07;4.43;;;;;;;;;;5024659;28;20188;-61
2024/02/08 09:31:18;;;;;;;11.87;4.33;;;;;;;;;;5040556;28;20180;-61
2024/02/08 09:34:00;;;;;;;9.80;3.23;;;;;;;;;;5022725;28;20228;-61
2024/02/08 09:36:29;;;;;;;8.70;3.03;;;;;;;;;;5021039;28;20219;-61
2024/02/08 09:38:56;;;;;;;5.80;3.07;;;;;;;;;;5044874;28;20212;-61
2024/02/08 09:41:25;;;;;;;5.80;2.40;;;;;;;;;;5011931;28;20652;-61
2024/02/08 09:44:09;;;;;;;10.40;2.83;;;;;;;;;;5039477;28;20245;-61
2024/02/08 09:49:12;;;;;;;5.67;2.93;;;;;;;;;;5036614;28;20286;-61
2024/02/08 09:51:40;;;;;;;7.23;2.63;;;;;;;;;;5051377;28;20305;-60
2024/02/08 09:54:16;;;;;;;4.50;2.13;;;;;;;;;;5045002;28;20745;-60
2024/02/08 09:56:50;;;;;;;5.97;2.00;;;;;;;;;;5027313;28;20192;-61
2024/02/08 09:59:40;;;;;;;7.60;2.50;;;;;;;;;;5038665;28;20231;-61
2024/02/08 10:02:20;;;;;;;4.13;2.07;;;;;;;;;;5044733;28;20773;-61
2024/02/08 10:04:49;;;;;;;7.07;2.73;;;;;;;;;;5035686;28;20188;-61
2024/02/08 10:07:19;;;;;;;5.30;2.30;;;;;;;;;;5024380;28;20660;-60
2024/02/08 10:09:47;;;;;;;5.17;2.07;;;;;;;;;;5031237;28;20253;-61
2024/02/08 10:12:30;;;;;;;5.60;2.03;;;;;;;;;;5052429;28;20282;-61
2024/02/08 10:14:59;;;;;;;4.87;1.90;;;;;;;;;;5041284;28;20183;-61
2024/02/08 10:17:28;;;;;;;3.37;1.90;;;;;;;;;;5025061;28;20180;-61
2024/02/08 10:20:45;;;;;;;3.37;1.80;;;;;;;;;;5014881;28;20644;-60
2024/02/08 10:23:09;;;;;;;4.23;2.20;;;;;;;;;;5016351;28;20190;-60
2024/02/08 10:28:22;;;;;;;3.27;1.80;;;;;;;;;;5028934;28;20238;-59
2024/02/08 10:31:22;;;;;;;3.53;1.50;;;;;;;;;;5030146;28;20211;-61
2024/02/08 10:33:48;;;;;;;2.47;1.57;;;;;;;;;;5035228;28;20263;-61
2024/02/08 10:36:30;;;;;;;5.10;2.00;;;;;;;;;;5051644;28;20671;-61
2024/02/08 10:39:03;;;;;;;2.30;1.40;;;;;;;;;;5029708;28;20224;-59
2024/02/08 10:44:19;;;;;;;1.57;1.03;;;;;;;;;;5040478;28;20211;-60
2024/02/08 10:46:48;;;;;;;3.13;1.60;;;;;;;;;;5037970;28;20191;-61
2024/02/08 10:49:14;;;;;;;3.23;1.40;;;;;;;;;;5051480;28;20577;-59
2024/02/08 10:51:43;;;;;;;1.90;1.30;;;;;;;;;;5034601;28;20347;-60
2024/02/08 10:54:14;;;;;;;5.43;1.60;;;;;;;;;;5028273;28;20712;-61
2024/02/08 10:56:44;;;;;;;2.63;1.50;;;;;;;;;;5017884;28;20197;-60
2024/02/08 10:59:13;;;;;;;2.57;1.50;;;;;;;;;;5047183;28;20335;-61
2024/02/08 11:02:00;;;;;;;1.73;1.10;;;;;;;;;;5047904;28;20326;-61
2024/02/08 11:04:30;;;;;;;1.97;1.23;;;;;;;;;;5046145;28;20307;-61
2024/02/08 11:07:06;;;;;;;3.17;1.50;;;;;;;;;;5036925;28;20195;-61
2024/02/08 11:09:33;;;;;;;2.13;1.20;;;;;;;;;;5021291;28;20269;-61
2024/02/08 11:12:03;;;;;;;4.10;1.50;;;;;;;;;;5026547;28;20536;-61
2024/02/08 11:14:32;;;;;;;1.90;1.20;;;;;;;;;;5051199;28;20491;-61
2024/02/08 11:17:03;;;;;;;2.10;1.40;;;;;;;;;;5036203;28;20275;-61
2024/02/08 11:19:34;;;;;;;4.00;2.77;;;;;;;;;;5027926;28;20220;-61
2024/02/08 11:22:18;;;;;;;6.57;3.10;;;;;;;;;;5034185;28;20183;-60
2024/02/08 11:24:57;;;;;;;19.67;12.03;;;;;;;;;;5018180;28;20180;-60
2024/02/08 11:27:34;;;;;;;13.00;6.90;;;;;;;;;;5034239;28;20190;-61
2024/02/08 11:30:00;;;;;;;7.23;4.67;;;;;;;;;;5050452;28;20372;-61
2024/02/08 11:32:27;;;;;;;4.37;2.00;;;;;;;;;;5027916;28;20279;-60
2024/02/08 11:35:00;;;;;;;3.10;1.83;;;;;;;;;;5045626;28;20190;-61
2024/02/08 11:37:30;;;;;;;4.27;2.13;;;;;;;;;;5032912;28;20186;-60
2024/02/08 11:40:09;;;;;;;13.90;8.67;;;;;;;;;;5034088;28;20285;-61
2024/02/08 11:42:35;;;;;;;4.67;2.47;;;;;;;;;;5018531;28;20208;-61
2024/02/08 11:45:08;;;;;;;3.07;1.90;;;;;;;;;;5034417;28;20186;-61
2024/02/08 11:47:37;;;;;;;6.93;3.30;;;;;;;;;;5026790;28;20287;-61
2024/02/08 11:50:04;;;;;;;9.33;4.37;;;;;;;;;;5022250;28;20221;-61
2024/02/08 11:52:31;;;;;;;23.40;19.03;;;;;;;;;;5015573;28;20668;-61
2024/02/08 11:55:08;;;;;;;7.93;5.07;;;;;;;;;;5016329;28;20213;-61
2024/02/08 11:57:40;;;;;;;8.33;4.43;;;;;;;;;;5033521;28;20182;-61
2024/02/08 12:00:16;;;;;;;5.40;2.50;;;;;;;;;;5018962;28;20209;-61
2024/02/08 12:02:47;;;;;;;4.77;2.03;;;;;;;;;;5033687;28;20183;-61
2024/02/08 12:05:15;;;;;;;3.70;2.50;;;;;;;;;;5024270;28;20682;-61
2024/02/08 12:07:45;;;;;;;7.13;2.23;;;;;;;;;;5036509;28;20183;-61
2024/02/08 12:10:13;;;;;;;9.07;7.20;;;;;;;;;;5037140;28;20582;-61
2024/02/08 12:12:41;;;;;;;20.60;12.67;;;;;;;;;;5042099;28;20201;-61
2024/02/08 12:15:07;;;;;;;6.17;4.67;;;;;;;;;;5039114;28;20187;-61
2024/02/08 12:17:33;;;;;;;5.40;3.10;;;;;;;;;;5038373;28;20180;-60
2024/02/08 12:19:59;;;;;;;4.23;3.10;;;;;;;;;;5050267;28;20265;-61
2024/02/08 12:22:26;;;;;;;6.33;4.80;;;;;;;;;;5040054;28;20608;-61
2024/02/08 12:25:01;;;;;;;4.30;2.87;;;;;;;;;;5032851;28;20261;-62
2024/02/08 12:27:28;;;;;;;1.83;1.13;;;;;;;;;;5037092;28;20172;-62
2024/02/08 12:29:56;;;;;;;0.87;0.70;;;;;;;;;;5038140;28;20206;-58
2024/02/08 12:32:27;;;;;;;1.63;0.87;;;;;;;;;;5024197;28;20185;-57
2024/02/08 12:34:54;;;;;;;2.07;0.63;;;;;;;;;;5022078;28;20705;-60
2024/02/08 12:37:22;;;;;;;3.50;1.20;;;;;;;;;;5036539;28;20658;-58
2024/02/08 12:39:49;;;;;;;3.70;1.97;;;;;;;;;;5030904;28;20204;-58
2024/02/08 12:42:18;;;;;;;2.70;1.50;;;;;;;;;;5042202;28;20686;-58
2024/02/08 12:44:49;;;;;;;7.87;3.43;;;;;;;;;;5031304;28;20592;-57
2024/02/08 12:47:17;;;;;;;17.03;9.63;;;;;;;;;;5041721;28;20266;-59
2024/02/08 12:49:45;;;;;;;4.10;2.67;;;;;;;;;;5032247;28;20202;-59
2024/02/08 12:52:13;;;;;;;6.77;3.57;;;;;;;;;;5040362;28;20200;-58
2024/02/08 12:54:39;;;;;;;5.37;3.13;;;;;;;;;;5048440;28;20187;-59
2024/02/08 12:57:12;;;;;;;3.70;2.00;;;;;;;;;;5044390;28;20183;-60
2024/02/08 12:59:42;;;;;;;4.80;3.20;;;;;;;;;;5028613;28;20223;-57
2024/02/08 13:02:18;;;;;;;6.43;3.10;;;;;;;;;;5032551;28;20728;-61
2024/02/08 13:04:46;;;;;;;3.73;2.13;;;;;;;;;;5047142;28;20206;-61
2024/02/08 13:07:19;;;;;;;4.40;2.53;;;;;;;;;;5024942;28;20194;-61
2024/02/08 13:09:46;;;;;;;6.07;3.53;;;;;;;;;;5024656;28;20324;-61
2024/02/08 13:12:19;;;;;;;6.10;3.40;;;;;;;;;;5049309;28;20698;-61
2024/02/08 13:14:51;;;;;;;2.70;1.80;;;;;;;;;;5023359;28;20666;-60
2024/02/08 13:17:20;;;;;;;4.00;2.40;;;;;;;;;;5020055;28;20192;-61
2024/02/08 13:19:54;;;;;;;4.17;2.30;;;;;;;;;;5019550;28;20762;-60
2024/02/08 13:22:31;;;;;;;3.37;2.40;;;;;;;;;;5031745;28;20678;-59
2024/02/08 13:24:57;;;;;;;2.30;1.20;;;;;;;;;;5018696;28;20196;-60
2024/02/08 13:27:30;;;;;;;9.30;7.40;;;;;;;;;;5024933;28;20266;-61
2024/02/08 13:29:57;;;;;;;4.20;2.80;;;;;;;;;;5024650;28;20737;-60
2024/02/08 13:32:29;;;;;;;2.70;1.73;;;;;;;;;;5013220;28;20183;-60
2024/02/08 13:34:58;;;;;;;2.10;1.40;;;;;;;;;;5028565;28;20176;-60
2024/02/08 13:37:26;;;;;;;1.73;1.10;;;;;;;;;;5044037;28;20183;-60
2024/02/08 13:39:59;;;;;;;2.70;1.57;;;;;;;;;;5032690;28;20686;-60
2024/02/08 13:42:28;;;;;;;4.43;1.80;;;;;;;;;;5039593;28;20213;-60
2024/02/08 13:44:57;;;;;;;2.40;1.67;;;;;;;;;;5045473;28;20567;-59
2024/02/08 13:47:25;;;;;;;2.47;1.60;;;;;;;;;;5052231;28;20175;-60
2024/02/08 13:49:52;;;;;;;2.13;1.20;;;;;;;;;;5024339;28;20208;-60
2024/02/08 13:52:25;;;;;;;5.07;1.33;;;;;;;;;;5022678;28;20184;-61
2024/02/08 13:54:52;;;;;;;3.07;1.20;;;;;;;;;;5026207;28;20184;-61
2024/02/08 13:57:18;;;;;;;3.83;2.00;;;;;;;;;;5029190;28;20286;-61
2024/02/08 13:59:48;;;;;;;3.43;2.03;;;;;;;;;;5034427;28;20294;-61
2024/02/08 14:02:15;;;;;;;3.30;1.70;;;;;;;;;;5021315;28;20196;-59
2024/02/08 14:04:45;;;;;;;6.80;2.07;;;;;;;;;;5029032;28;20187;-59
2024/02/08 14:07:14;;;;;;;5.43;2.60;;;;;;;;;;5019596;28;20650;-60
2024/02/08 14:09:43;;;;;;;10.87;2.20;;;;;;;;;;5043859;28;20683;-60
2024/02/08 14:12:09;;;;;;;3.87;2.20;;;;;;;;;;5027728;28;20679;-60
2024/02/08 14:14:43;;;;;;;5.30;2.57;;;;;;;;;;5037282;28;20551;-60
2024/02/08 14:17:10;;;;;;;11.47;4.67;;;;;;;;;;5028247;28;20204;-60
2024/02/08 14:19:42;;;;;;;7.37;3.50;;;;;;;;;;5028871;28;20227;-61
2024/02/08 14:22:10;;;;;;;7.73;3.10;;;;;;;;;;5024450;28;20204;-60
2024/02/08 14:24:39;;;;;;;10.43;4.53;;;;;;;;;;5040632;28;20283;-60
2024/02/08 14:27:10;;;;;;;8.00;4.07;;;;;;;;;;5036736;28;20180;-61
2024/02/08 14:29:37;;;;;;;9.67;4.30;;;;;;;;;;5028624;28;20246;-61
2024/02/08 14:32:08;;;;;;;7.20;3.10;;;;;;;;;;5020449;28;20266;-61
2024/02/08 14:34:36;;;;;;;6.53;3.27;;;;;;;;;;5019756;28;20231;-61
2024/02/08 14:37:03;;;;;;;5.00;2.63;;;;;;;;;;5036905;28;20676;-61
2024/02/08 14:39:32;;;;;;;5.27;2.53;;;;;;;;;;5028677;28;20216;-61
2024/02/08 14:41:59;;;;;;;5.33;3.07;;;;;;;;;;5033757;28;20246;-60
2024/02/08 14:44:41;;;;;;;4.53;2.53;;;;;;;;;;5043822;28;20201;-60
2024/02/08 14:47:07;;;;;;;4.07;2.30;;;;;;;;;;5032700;28;20188;-61
2024/02/08 14:49:54;;;;;;;3.10;2.13;;;;;;;;;;5041115;28;20588;-59
2024/02/08 14:52:24;;;;;;;4.97;2.97;;;;;;;;;;5028968;28;20245;-59
2024/02/08 14:54:54;;;;;;;3.80;2.77;;;;;;;;;;5031462;28;20191;-60
2024/02/08 14:57:24;;;;;;;8.93;3.97;;;;;;;;;;5022033;28;20198;-59
2024/02/08 14:59:52;;;;;;;9.93;4.43;;;;;;;;;;5040550;28;20694;-60
2024/02/08 15:02:21;;;;;;;4.90;2.73;;;;;;;;;;5024637;28;20183;-61
2024/02/08 15:04:54;;;;;;;6.17;3.30;;;;;;;;;;5012500;28;20227;-60
2024/02/08 15:10:13;;;;;;;6.03;3.47;;;;;;;;;;5050951;28;20256;-60
2024/02/08 15:12:52;;;;;;;7.10;3.57;;;;;;;;;;5026412;28;20287;-60
2024/02/08 15:15:33;;;;;;;7.93;3.20;;;;;;;;;;5033719;28;20212;-60
2024/02/08 15:18:11;;;;;;;5.10;3.17;;;;;;;;;;5016484;28;20260;-60
2024/02/08 15:20:43;;;;;;;4.87;3.00;;;;;;;;;;5026945;28;20266;-61
2024/02/08 15:23:09;;;;;;;7.13;3.60;;;;;;;;;;5018823;28;20577;-61
2024/02/08 15:25:43;;;;;;;4.27;2.77;;;;;;;;;;5011033;28;20546;-59
2024/02/08 15:28:25;;;;;;;6.10;2.50;;;;;;;;;;5026238;28;20223;-61
2024/02/08 15:30:55;;;;;;;4.43;2.23;;;;;;;;;;5034012;28;20639;-60
2024/02/08 15:33:55;;;;;;;4.30;2.43;;;;;;;;;;5042435;28;20178;-60
2024/02/08 15:36:10;;;;;;;5.63;2.43;;;;;;;;;;5024635;28;20407;-60
2024/02/08 15:38:45;;;;;;;3.73;2.43;;;;;;;;;;5010815;28;20721;-60
2024/02/08 15:41:19;;;;;;;3.57;2.30;;;;;;;;;;5042753;28;20206;-60
2024/02/08 15:43:48;;;;;;;4.13;2.60;;;;;;;;;;5041470;28;20565;-60
2024/02/08 15:46:20;;;;;;;5.67;2.70;;;;;;;;;;5033339;28;20178;-60
2024/02/08 15:48:46;;;;;;;3.40;2.40;;;;;;;;;;5033497;28;20198;-60
2024/02/08 15:51:13;;;;;;;3.90;2.70;;;;;;;;;;5041082;28;20217;-60
2024/02/08 15:53:49;;;;;;;4.40;2.80;;;;;;;;;;5033555;28;20198;-60
2024/02/08 15:56:21;;;;;;;4.60;2.90;;;;;;;;;;5032428;28;20263;-60
2024/02/08 15:58:53;;;;;;;4.70;3.17;;;;;;;;;;5018109;28;20231;-61
2024/02/08 16:02:04;;;;;;;5.40;3.33;;;;;;;;;;5026218;28;20299;-60
2024/02/08 16:06:56;;;;;;;7.77;4.40;;;;;;;;;;5031517;28;20236;-60
2024/02/08 16:09:25;;;;;;;7.80;4.37;;;;;;;;;;5032929;28;20240;-59
2024/02/08 16:11:58;;;;;;;5.93;3.50;;;;;;;;;;5043470;28;20187;-60
2024/02/08 16:14:26;;;;;;;7.10;4.20;;;;;;;;;;5027394;28;20200;-60
2024/02/08 16:17:07;;;;;;;6.07;3.77;;;;;;;;;;5029515;28;20692;-60
2024/02/08 16:19:43;;;;;;;8.80;4.00;;;;;;;;;;5036521;28;20278;-60
2024/02/08 16:22:19;;;;;;;5.77;4.03;;;;;;;;;;5027503;28;20271;-60
2024/02/08 16:24:49;;;;;;;8.40;4.20;;;;;;;;;;5019722;28;20184;-61
2024/02/08 16:27:16;;;;;;;7.50;4.30;;;;;;;;;;5033522;28;20176;-61
2024/02/08 16:29:56;;;;;;;8.23;5.10;;;;;;;;;;5026806;28;20214;-61
2024/02/08 16:32:29;;;;;;;9.13;5.10;;;;;;;;;;5024765;28;20188;-61
2024/02/08 16:35:00;;;;;;;10.17;4.60;;;;;;;;;;5036866;28;20196;-59
2024/02/08 16:38:07;;;;;;;9.03;5.23;;;;;;;;;;5029472;28;20199;-61
2024/02/08 16:40:30;;;;;;;8.67;4.27;;;;;;;;;;5020562;28;20216;-61
2024/02/08 16:43:10;;;;;;;10.80;5.10;;;;;;;;;;5038531;28;20213;-60
2024/02/08 16:45:44;;;;;;;8.57;5.00;;;;;;;;;;5031200;28;20203;-61
2024/02/08 16:48:21;;;;;;;10.63;5.80;;;;;;;;;;5013974;28;20543;-61
2024/02/08 16:50:49;;;;;;;9.70;5.30;;;;;;;;;;5033650;28;20207;-61
2024/02/08 16:53:19;;;;;;;11.00;5.87;;;;;;;;;;5045455;28;20575;-59
2024/02/08 16:55:48;;;;;;;9.70;5.37;;;;;;;;;;5045715;28;20500;-61
2024/02/08 16:58:27;;;;;;;12.73;5.90;;;;;;;;;;5032605;28;20257;-60
2024/02/08 17:01:02;;;;;;;10.23;6.20;;;;;;;;;;5039091;28;20718;-61
2024/02/08 17:03:50;;;;;;;14.73;6.60;;;;;;;;;;5029523;28;20662;-61
2024/02/08 17:06:17;;;;;;;12.43;6.37;;;;;;;;;;5037067;28;20187;-60
2024/02/08 17:11:35;;;;;;;16.10;6.70;;;;;;;;;;5044192;28;20237;-59